Accueil
METAR-TAF:

METAR-TAF

Aéroports :

Aéroport de Liège

Liège, Belgique

latitude: 50-39N, longitude: 005-27E, altitude: 186 m

Observation

Le bulletin a été fait il y a 35 minutes, à 08:20 UTC
Vent 4 kt de nord/nord-est, variant entre nord et est/sud-est
Température 5°C
Humidité 75%
Pression 1026 hPa
Visibilité 10 km ou plus
pas de nuages en-dessous de 1500 mètres et pas de cumulonimbus.

METAR: EBLG 170820Z 03004KT 360V120 CAVOK 05/01 Q1026 NOSIG

Heure: 10:55 (08:55 UTC)

Prévision

Le bulletin a été fait il y a 3 heures et 45 minutes, à 05:10 UTC
Prévision valable du 17 à 06 UTC au 18 à 12 UTC
Vent 7 kt de nord
Visibilité 10 km ou plus
pas de nuages en-dessous de 1500 mètres et pas de cumulonimbus.

TAF: EBLG 170510Z 1706/1812 01007KT CAVOK

Observations et prévisions météorologiques de plus de 4000 aéroports (messages METAR et TAF).

Les stations disponibles sont représentées par des disques jaunes et rouges sur la carte.

Passer la souris dessus pour voir le nom de la station.

Cliquer dessus pour voir les observations et prévisions météorologiques.

Pour changer de carte: cliquez sur les boutons verts avec une croix noire pour zoomer, sur le bouton vert avec un tiret pour effectuer un zoom arrière, ou sur les flèches vertes pour les cartes adjacentes.


METAR-TAF: